sensor_id;sensor_type;location;lat;lon;timestamp;pressure;altitude;pressure_sealevel;temperature;humidity
64115;BME280;62188;35.640;139.748;2023-03-14T00:00:33;102129.82;;;14.52;29.90
64115;BME280;62188;35.640;139.748;2023-03-14T00:02:59;102125.25;;;14.25;30.82
64115;BME280;62188;35.640;139.748;2023-03-14T00:05:25;102123.64;;;14.85;30.37
64115;BME280;62188;35.640;139.748;2023-03-14T00:07:51;102121.14;;;14.91;30.00
64115;BME280;62188;35.640;139.748;2023-03-14T00:10:16;102111.56;;;14.65;29.62
64115;BME280;62188;35.640;139.748;2023-03-14T00:12:42;102114.01;;;14.73;29.88
64115;BME280;62188;35.640;139.748;2023-03-14T00:15:07;102127.48;;;14.77;29.98
64115;BME280;62188;35.640;139.748;2023-03-14T00:17:33;102128.62;;;14.91;29.39
64115;BME280;62188;35.640;139.748;2023-03-14T00:19:58;102131.29;;;14.94;29.79
64115;BME280;62188;35.640;139.748;2023-03-14T00:22:24;102137.26;;;14.80;29.97
64115;BME280;62188;35.640;139.748;2023-03-14T00:24:50;102147.05;;;14.62;29.89
64115;BME280;62188;35.640;139.748;2023-03-14T00:27:15;102151.66;;;14.71;29.52
64115;BME280;62188;35.640;139.748;2023-03-14T00:29:42;102150.24;;;15.01;29.25
64115;BME280;62188;35.640;139.748;2023-03-14T00:32:06;102147.55;;;14.69;29.44
64115;BME280;62188;35.640;139.748;2023-03-14T00:34:34;102146.37;;;14.99;30.00
64115;BME280;62188;35.640;139.748;2023-03-14T00:36:58;102147.50;;;15.02;29.82
64115;BME280;62188;35.640;139.748;2023-03-14T00:39:24;102155.53;;;14.85;30.21
64115;BME280;62188;35.640;139.748;2023-03-14T00:41:49;102158.36;;;14.47;29.26
64115;BME280;62188;35.640;139.748;2023-03-14T00:44:15;102158.52;;;14.92;29.72
64115;BME280;62188;35.640;139.748;2023-03-14T00:46:40;102163.67;;;14.97;29.58
64115;BME280;62188;35.640;139.748;2023-03-14T00:49:07;102166.71;;;14.83;29.36
64115;BME280;62188;35.640;139.748;2023-03-14T00:51:32;102168.73;;;14.95;29.51
64115;BME280;62188;35.640;139.748;2023-03-14T00:53:58;102169.02;;;15.13;28.77
64115;BME280;62188;35.640;139.748;2023-03-14T00:56:24;102167.56;;;14.87;29.51
64115;BME280;62188;35.640;139.748;2023-03-14T00:58:49;102170.58;;;14.66;29.80
64115;BME280;62188;35.640;139.748;2023-03-14T01:01:17;102172.69;;;14.83;29.29
64115;BME280;62188;35.640;139.748;2023-03-14T01:03:40;102178.08;;;14.80;29.40
64115;BME280;62188;35.640;139.748;2023-03-14T01:06:12;102181.36;;;14.88;29.61
64115;BME280;62188;35.640;139.748;2023-03-14T01:08:32;102185.18;;;14.73;29.58
64115;BME280;62188;35.640;139.748;2023-03-14T01:10:57;102185.76;;;14.91;29.92
64115;BME280;62188;35.640;139.748;2023-03-14T01:13:23;102188.54;;;15.01;29.59
64115;BME280;62188;35.640;139.748;2023-03-14T01:15:49;102188.81;;;14.79;29.33
64115;BME280;62188;35.640;139.748;2023-03-14T01:18:14;102187.02;;;14.73;29.56
64115;BME280;62188;35.640;139.748;2023-03-14T01:20:40;102189.15;;;14.93;28.90
64115;BME280;62188;35.640;139.748;2023-03-14T01:23:05;102186.43;;;14.73;28.85
64115;BME280;62188;35.640;139.748;2023-03-14T01:25:31;102184.90;;;14.53;29.10
64115;BME280;62188;35.640;139.748;2023-03-14T01:27:57;102181.41;;;15.06;29.04
64115;BME280;62188;35.640;139.748;2023-03-14T01:30:23;102178.70;;;14.97;28.77
64115;BME280;62188;35.640;139.748;2023-03-14T01:32:49;102180.19;;;14.99;28.84
64115;BME280;62188;35.640;139.748;2023-03-14T01:35:13;102176.36;;;14.80;28.52
64115;BME280;62188;35.640;139.748;2023-03-14T01:37:40;102179.41;;;15.19;28.55
64115;BME280;62188;35.640;139.748;2023-03-14T01:40:06;102176.37;;;15.27;28.58
64115;BME280;62188;35.640;139.748;2023-03-14T01:42:30;102175.71;;;15.16;28.33
64115;BME280;62188;35.640;139.748;2023-03-14T01:44:58;102176.71;;;15.17;27.91
64115;BME280;62188;35.640;139.748;2023-03-14T01:47:23;102179.32;;;15.36;28.09
64115;BME280;62188;35.640;139.748;2023-03-14T01:49:50;102176.31;;;15.21;28.11
64115;BME280;62188;35.640;139.748;2023-03-14T01:52:16;102173.15;;;15.22;27.98
64115;BME280;62188;35.640;139.748;2023-03-14T01:54:42;102169.64;;;15.52;27.79
64115;BME280;62188;35.640;139.748;2023-03-14T01:57:08;102164.97;;;15.72;27.05
64115;BME280;62188;35.640;139.748;2023-03-14T01:59:33;102166.43;;;16.32;26.84
64115;BME280;62188;35.640;139.748;2023-03-14T02:02:00;102163.69;;;16.67;26.43
64115;BME280;62188;35.640;139.748;2023-03-14T02:04:22;102160.22;;;17.16;25.76
64115;BME280;62188;35.640;139.748;2023-03-14T02:06:53;102159.10;;;17.16;24.92
64115;BME280;62188;35.640;139.748;2023-03-14T02:09:13;102156.04;;;17.27;25.55
64115;BME280;62188;35.640;139.748;2023-03-14T02:11:39;102154.50;;;17.55;24.85
64115;BME280;62188;35.640;139.748;2023-03-14T02:14:04;102152.84;;;17.84;24.22
64115;BME280;62188;35.640;139.748;2023-03-14T02:16:30;102146.00;;;18.30;24.54
64115;BME280;62188;35.640;139.748;2023-03-14T02:18:55;102144.15;;;18.77;24.26
64115;BME280;62188;35.640;139.748;2023-03-14T02:21:26;102141.15;;;18.66;23.00
64115;BME280;62188;35.640;139.748;2023-03-14T02:23:56;102142.66;;;18.90;23.38
64115;BME280;62188;35.640;139.748;2023-03-14T02:26:18;102141.92;;;18.89;22.71
64115;BME280;62188;35.640;139.748;2023-03-14T02:28:38;102138.92;;;18.87;23.06
64115;BME280;62188;35.640;139.748;2023-03-14T02:31:03;102141.66;;;19.11;22.33
64115;BME280;62188;35.640;139.748;2023-03-14T02:33:29;102139.34;;;19.32;22.20
64115;BME280;62188;35.640;139.748;2023-03-14T02:35:59;102138.81;;;19.72;21.75
64115;BME280;62188;35.640;139.748;2023-03-14T02:38:24;102137.20;;;19.81;21.93
64115;BME280;62188;35.640;139.748;2023-03-14T02:40:46;102132.99;;;19.98;21.43
64115;BME280;62188;35.640;139.748;2023-03-14T02:43:12;102130.55;;;19.74;21.18
64115;BME280;62188;35.640;139.748;2023-03-14T02:45:41;102127.75;;;20.06;21.25
64115;BME280;62188;35.640;139.748;2023-03-14T02:48:05;102122.59;;;20.10;21.04
64115;BME280;62188;35.640;139.748;2023-03-14T02:50:30;102121.95;;;19.83;21.03
64115;BME280;62188;35.640;139.748;2023-03-14T02:52:53;102119.90;;;19.87;21.28
64115;BME280;62188;35.640;139.748;2023-03-14T02:55:22;102112.10;;;20.12;21.00
64115;BME280;62188;35.640;139.748;2023-03-14T02:57:44;102111.20;;;20.39;20.89
64115;BME280;62188;35.640;139.748;2023-03-14T03:00:11;102111.44;;;20.14;20.87
64115;BME280;62188;35.640;139.748;2023-03-14T03:02:36;102112.35;;;20.36;20.58
64115;BME280;62188;35.640;139.748;2023-03-14T03:05:02;102109.41;;;20.17;20.69
64115;BME280;62188;35.640;139.748;2023-03-14T03:07:27;102105.80;;;20.12;20.76
64115;BME280;62188;35.640;139.748;2023-03-14T03:09:52;102104.07;;;20.18;20.23
64115;BME280;62188;35.640;139.748;2023-03-14T03:12:18;102103.06;;;19.95;20.14
64115;BME280;62188;35.640;139.748;2023-03-14T03:14:43;102096.05;;;19.57;20.00
64115;BME280;62188;35.640;139.748;2023-03-14T03:17:09;102086.81;;;19.81;20.33
64115;BME280;62188;35.640;139.748;2023-03-14T03:19:34;102086.39;;;19.78;20.64
64115;BME280;62188;35.640;139.748;2023-03-14T03:22:00;102081.05;;;20.31;20.25
64115;BME280;62188;35.640;139.748;2023-03-14T03:24:26;102077.25;;;20.05;20.23
64115;BME280;62188;35.640;139.748;2023-03-14T03:26:51;102072.99;;;20.49;19.88
64115;BME280;62188;35.640;139.748;2023-03-14T03:29:16;102073.08;;;20.60;19.93
64115;BME280;62188;35.640;139.748;2023-03-14T03:31:42;102071.59;;;20.55;19.58
64115;BME280;62188;35.640;139.748;2023-03-14T03:34:08;102068.20;;;20.15;19.67
64115;BME280;62188;35.640;139.748;2023-03-14T03:36:33;102068.72;;;20.22;19.77
64115;BME280;62188;35.640;139.748;2023-03-14T03:38:59;102066.21;;;20.32;19.85
64115;BME280;62188;35.640;139.748;2023-03-14T03:41:24;102060.52;;;20.49;20.17
64115;BME280;62188;35.640;139.748;2023-03-14T03:43:50;102059.42;;;20.95;19.53
64115;BME280;62188;35.640;139.748;2023-03-14T03:46:15;102052.38;;;21.05;19.33
64115;BME280;62188;35.640;139.748;2023-03-14T03:48:41;102051.21;;;20.91;19.43
64115;BME280;62188;35.640;139.748;2023-03-14T03:51:06;102041.01;;;21.02;19.37
64115;BME280;62188;35.640;139.748;2023-03-14T03:53:32;102034.15;;;21.05;19.46
64115;BME280;62188;35.640;139.748;2023-03-14T03:55:58;102027.76;;;20.92;19.27
64115;BME280;62188;35.640;139.748;2023-03-14T03:58:23;102023.09;;;20.60;19.16
64115;BME280;62188;35.640;139.748;2023-03-14T04:00:48;102022.71;;;20.50;19.51
64115;BME280;62188;35.640;139.748;2023-03-14T04:03:14;102021.32;;;20.96;19.80
64115;BME280;62188;35.640;139.748;2023-03-14T04:05:40;102018.48;;;21.00;19.29
64115;BME280;62188;35.640;139.748;2023-03-14T04:08:06;102023.68;;;20.57;19.39
64115;BME280;62188;35.640;139.748;2023-03-14T04:10:34;102019.25;;;20.88;19.36
64115;BME280;62188;35.640;139.748;2023-03-14T04:12:57;102010.64;;;21.10;18.93
64115;BME280;62188;35.640;139.748;2023-03-14T04:15:22;102011.96;;;20.67;19.21
64115;BME280;62188;35.640;139.748;2023-03-14T04:17:47;102010.29;;;21.00;18.90
64115;BME280;62188;35.640;139.748;2023-03-14T04:20:13;102003.44;;;20.51;18.99
64115;BME280;62188;35.640;139.748;2023-03-14T04:22:39;101999.77;;;20.46;19.34
64115;BME280;62188;35.640;139.748;2023-03-14T04:25:05;101991.65;;;20.60;19.61
64115;BME280;62188;35.640;139.748;2023-03-14T04:27:30;101991.15;;;20.34;19.58
64115;BME280;62188;35.640;139.748;2023-03-14T04:29:55;101984.60;;;20.16;19.62
64115;BME280;62188;35.640;139.748;2023-03-14T04:32:21;101983.15;;;19.94;19.74
64115;BME280;62188;35.640;139.748;2023-03-14T04:34:46;101982.07;;;20.23;19.61
64115;BME280;62188;35.640;139.748;2023-03-14T04:37:12;101983.53;;;19.68;19.43
64115;BME280;62188;35.640;139.748;2023-03-14T04:39:37;101987.31;;;19.92;19.96
64115;BME280;62188;35.640;139.748;2023-03-14T04:42:03;101993.61;;;20.06;20.42
64115;BME280;62188;35.640;139.748;2023-03-14T04:44:28;101994.56;;;20.11;19.48
64115;BME280;62188;35.640;139.748;2023-03-14T04:46:54;101999.43;;;19.33;20.01
64115;BME280;62188;35.640;139.748;2023-03-14T04:49:21;102003.19;;;18.87;20.56
64115;BME280;62188;35.640;139.748;2023-03-14T04:51:45;102005.31;;;18.61;20.78
64115;BME280;62188;35.640;139.748;2023-03-14T04:54:11;102009.14;;;18.54;21.36
64115;BME280;62188;35.640;139.748;2023-03-14T04:56:36;102008.94;;;18.11;21.66
64115;BME280;62188;35.640;139.748;2023-03-14T04:59:02;102010.41;;;18.18;22.13
64115;BME280;62188;35.640;139.748;2023-03-14T05:01:28;102009.27;;;17.76;22.61
64115;BME280;62188;35.640;139.748;2023-03-14T05:03:55;102011.25;;;17.41;23.39
64115;BME280;62188;35.640;139.748;2023-03-14T05:06:19;102006.11;;;17.04;23.42
64115;BME280;62188;35.640;139.748;2023-03-14T05:08:45;102006.82;;;17.17;23.70
64115;BME280;62188;35.640;139.748;2023-03-14T05:11:11;102009.53;;;16.95;23.81
64115;BME280;62188;35.640;139.748;2023-03-14T05:13:35;102014.31;;;16.64;23.89
64115;BME280;62188;35.640;139.748;2023-03-14T05:16:07;102019.42;;;16.49;23.95
64115;BME280;62188;35.640;139.748;2023-03-14T05:18:27;102016.60;;;16.29;24.42
64115;BME280;62188;35.640;139.748;2023-03-14T05:20:52;102027.23;;;16.50;24.85
64115;BME280;62188;35.640;139.748;2023-03-14T05:23:18;102021.02;;;16.34;24.72
64115;BME280;62188;35.640;139.748;2023-03-14T05:25:44;102021.75;;;16.21;24.64
64115;BME280;62188;35.640;139.748;2023-03-14T05:28:09;102022.35;;;16.40;25.30
64115;BME280;62188;35.640;139.748;2023-03-14T05:30:35;102020.77;;;16.50;25.19
64115;BME280;62188;35.640;139.748;2023-03-14T05:33:01;102019.70;;;16.26;25.19
64115;BME280;62188;35.640;139.748;2023-03-14T05:35:26;102020.81;;;15.68;25.57
64115;BME280;62188;35.640;139.748;2023-03-14T05:37:52;102020.13;;;16.16;25.62
64115;BME280;62188;35.640;139.748;2023-03-14T05:40:17;102022.08;;;15.91;25.67
64115;BME280;62188;35.640;139.748;2023-03-14T05:42:43;102016.35;;;16.13;25.55
64115;BME280;62188;35.640;139.748;2023-03-14T05:45:09;102017.32;;;16.05;25.76
64115;BME280;62188;35.640;139.748;2023-03-14T05:47:34;102018.13;;;15.77;25.81
64115;BME280;62188;35.640;139.748;2023-03-14T05:50:00;102015.71;;;15.83;26.00
64115;BME280;62188;35.640;139.748;2023-03-14T05:52:25;102019.53;;;15.94;25.87
64115;BME280;62188;35.640;139.748;2023-03-14T05:54:51;102016.82;;;15.81;25.85
64115;BME280;62188;35.640;139.748;2023-03-14T05:57:17;102018.92;;;16.09;26.25
64115;BME280;62188;35.640;139.748;2023-03-14T05:59:42;102022.63;;;15.97;26.68
64115;BME280;62188;35.640;139.748;2023-03-14T06:02:08;102027.19;;;15.60;26.56
64115;BME280;62188;35.640;139.748;2023-03-14T06:04:34;102024.19;;;16.06;26.77
64115;BME280;62188;35.640;139.748;2023-03-14T06:06:59;102027.15;;;15.89;26.16
64115;BME280;62188;35.640;139.748;2023-03-14T06:09:25;102025.34;;;16.06;26.28
64115;BME280;62188;35.640;139.748;2023-03-14T06:11:51;102029.21;;;15.73;26.55
64115;BME280;62188;35.640;139.748;2023-03-14T06:14:16;102032.99;;;15.47;26.46
64115;BME280;62188;35.640;139.748;2023-03-14T06:16:42;102037.51;;;15.83;26.40
64115;BME280;62188;35.640;139.748;2023-03-14T06:19:07;102041.01;;;15.54;26.55
64115;BME280;62188;35.640;139.748;2023-03-14T06:21:33;102040.26;;;15.86;26.62
64115;BME280;62188;35.640;139.748;2023-03-14T06:23:59;102044.98;;;15.79;26.71
64115;BME280;62188;35.640;139.748;2023-03-14T06:26:24;102047.76;;;15.83;26.17
64115;BME280;62188;35.640;139.748;2023-03-14T06:28:50;102048.36;;;15.78;25.95
64115;BME280;62188;35.640;139.748;2023-03-14T06:31:16;102046.27;;;15.84;26.20
64115;BME280;62188;35.640;139.748;2023-03-14T06:33:41;102047.56;;;15.57;26.41
64115;BME280;62188;35.640;139.748;2023-03-14T06:36:07;102049.49;;;15.60;26.16
64115;BME280;62188;35.640;139.748;2023-03-14T06:38:33;102059.33;;;15.56;26.39
64115;BME280;62188;35.640;139.748;2023-03-14T06:43:23;102058.40;;;15.65;26.23
64115;BME280;62188;35.640;139.748;2023-03-14T06:45:49;102056.63;;;15.46;26.24
64115;BME280;62188;35.640;139.748;2023-03-14T06:48:17;102062.51;;;15.49;26.49
64115;BME280;62188;35.640;139.748;2023-03-14T06:50:41;102062.42;;;15.11;26.39
64115;BME280;62188;35.640;139.748;2023-03-14T06:53:06;102068.82;;;15.67;26.53
64115;BME280;62188;35.640;139.748;2023-03-14T06:55:31;102069.97;;;15.61;26.51
64115;BME280;62188;35.640;139.748;2023-03-14T06:57:57;102073.10;;;15.70;26.53
64115;BME280;62188;35.640;139.748;2023-03-14T07:00:23;102074.47;;;15.60;26.69
64115;BME280;62188;35.640;139.748;2023-03-14T07:02:48;102071.28;;;15.38;26.83
64115;BME280;62188;35.640;139.748;2023-03-14T07:05:14;102076.73;;;15.25;26.92
64115;BME280;62188;35.640;139.748;2023-03-14T07:07:40;102078.38;;;15.40;26.88
64115;BME280;62188;35.640;139.748;2023-03-14T07:10:06;102083.50;;;15.50;26.99
64115;BME280;62188;35.640;139.748;2023-03-14T07:12:30;102084.83;;;15.39;27.05
64115;BME280;62188;35.640;139.748;2023-03-14T07:14:56;102082.36;;;15.50;26.80
64115;BME280;62188;35.640;139.748;2023-03-14T07:17:22;102089.10;;;15.93;26.78
64115;BME280;62188;35.640;139.748;2023-03-14T07:19:48;102089.55;;;15.60;26.64
64115;BME280;62188;35.640;139.748;2023-03-14T07:22:13;102093.88;;;15.66;26.76
64115;BME280;62188;35.640;139.748;2023-03-14T07:24:39;102092.67;;;15.67;26.32
64115;BME280;62188;35.640;139.748;2023-03-14T07:27:05;102093.70;;;15.71;26.44
64115;BME280;62188;35.640;139.748;2023-03-14T07:29:30;102094.93;;;15.71;26.59
64115;BME280;62188;35.640;139.748;2023-03-14T07:31:56;102096.98;;;15.81;26.36
64115;BME280;62188;35.640;139.748;2023-03-14T07:34:22;102100.42;;;15.76;26.32
64115;BME280;62188;35.640;139.748;2023-03-14T07:36:47;102106.12;;;16.08;26.24
64115;BME280;62188;35.640;139.748;2023-03-14T07:39:13;102105.98;;;15.96;25.84
64115;BME280;62188;35.640;139.748;2023-03-14T07:41:38;102108.05;;;16.09;25.69
64115;BME280;62188;35.640;139.748;2023-03-14T07:44:04;102106.68;;;16.07;25.75
64115;BME280;62188;35.640;139.748;2023-03-14T07:46:29;102110.97;;;16.10;25.82
64115;BME280;62188;35.640;139.748;2023-03-14T07:48:55;102112.58;;;15.85;25.89
64115;BME280;62188;35.640;139.748;2023-03-14T07:51:21;102114.31;;;16.20;25.77
64115;BME280;62188;35.640;139.748;2023-03-14T07:53:46;102115.94;;;15.90;25.76
64115;BME280;62188;35.640;139.748;2023-03-14T07:56:12;102120.38;;;16.09;26.19
64115;BME280;62188;35.640;139.748;2023-03-14T07:58:38;102119.17;;;15.79;26.23
64115;BME280;62188;35.640;139.748;2023-03-14T08:01:03;102121.81;;;15.89;26.12
64115;BME280;62188;35.640;139.748;2023-03-14T08:03:29;102118.15;;;15.84;25.87
64115;BME280;62188;35.640;139.748;2023-03-14T08:05:55;102115.41;;;15.89;26.02
64115;BME280;62188;35.640;139.748;2023-03-14T08:08:20;102124.51;;;16.12;26.17
64115;BME280;62188;35.640;139.748;2023-03-14T08:10:45;102129.46;;;15.57;26.15
64115;BME280;62188;35.640;139.748;2023-03-14T08:13:11;102133.13;;;16.07;26.22
64115;BME280;62188;35.640;139.748;2023-03-14T08:15:36;102135.52;;;15.68;26.09
64115;BME280;62188;35.640;139.748;2023-03-14T08:18:02;102135.99;;;16.00;26.32
64115;BME280;62188;35.640;139.748;2023-03-14T08:20:29;102139.42;;;15.50;26.15
64115;BME280;62188;35.640;139.748;2023-03-14T08:22:55;102141.54;;;15.72;26.07
64115;BME280;62188;35.640;139.748;2023-03-14T08:25:19;102145.04;;;15.83;26.15
64115;BME280;62188;35.640;139.748;2023-03-14T08:27:45;102148.65;;;15.84;26.27
64115;BME280;62188;35.640;139.748;2023-03-14T08:30:13;102154.39;;;15.94;26.29
64115;BME280;62188;35.640;139.748;2023-03-14T08:32:37;102155.97;;;15.92;26.37
64115;BME280;62188;35.640;139.748;2023-03-14T08:35:02;102159.46;;;15.93;26.35
64115;BME280;62188;35.640;139.748;2023-03-14T08:37:27;102165.21;;;15.95;26.37
64115;BME280;62188;35.640;139.748;2023-03-14T08:39:53;102168.03;;;15.82;26.57
64115;BME280;62188;35.640;139.748;2023-03-14T08:42:19;102170.03;;;15.74;26.67
64115;BME280;62188;35.640;139.748;2023-03-14T08:44:44;102173.02;;;16.08;26.92
64115;BME280;62188;35.640;139.748;2023-03-14T08:47:10;102177.05;;;15.95;27.10
64115;BME280;62188;35.640;139.748;2023-03-14T08:49:35;102179.37;;;15.96;27.29
64115;BME280;62188;35.640;139.748;2023-03-14T08:52:02;102182.48;;;16.07;27.24
64115;BME280;62188;35.640;139.748;2023-03-14T08:54:26;102188.69;;;16.09;27.18
64115;BME280;62188;35.640;139.748;2023-03-14T08:56:52;102197.71;;;15.76;27.47
64115;BME280;62188;35.640;139.748;2023-03-14T08:59:18;102201.73;;;15.60;27.56
64115;BME280;62188;35.640;139.748;2023-03-14T09:01:44;102204.99;;;15.78;27.71
64115;BME280;62188;35.640;139.748;2023-03-14T09:04:09;102207.95;;;15.61;27.69
64115;BME280;62188;35.640;139.748;2023-03-14T09:06:35;102223.96;;;16.01;27.79
64115;BME280;62188;35.640;139.748;2023-03-14T09:09:01;102232.83;;;14.89;30.17
64115;BME280;62188;35.640;139.748;2023-03-14T09:11:26;102227.02;;;14.78;31.23
64115;BME280;62188;35.640;139.748;2023-03-14T09:13:52;102235.08;;;15.00;31.07
64115;BME280;62188;35.640;139.748;2023-03-14T09:16:17;102240.47;;;15.25;31.73
64115;BME280;62188;35.640;139.748;2023-03-14T09:18:43;102239.51;;;14.69;31.83
64115;BME280;62188;35.640;139.748;2023-03-14T09:21:09;102242.70;;;14.64;31.78
64115;BME280;62188;35.640;139.748;2023-03-14T09:23:35;102249.78;;;15.10;31.74
64115;BME280;62188;35.640;139.748;2023-03-14T09:26:01;102250.57;;;14.91;31.77
64115;BME280;62188;35.640;139.748;2023-03-14T09:28:26;102257.66;;;14.94;31.66
64115;BME280;62188;35.640;139.748;2023-03-14T09:30:51;102264.41;;;14.73;32.13
64115;BME280;62188;35.640;139.748;2023-03-14T09:33:17;102267.41;;;14.77;32.11
64115;BME280;62188;35.640;139.748;2023-03-14T09:35:42;102274.09;;;14.91;32.14
64115;BME280;62188;35.640;139.748;2023-03-14T09:38:08;102273.78;;;14.62;32.00
64115;BME280;62188;35.640;139.748;2023-03-14T09:40:35;102280.22;;;14.72;32.27
64115;BME280;62188;35.640;139.748;2023-03-14T09:43:00;102288.16;;;14.71;32.32
64115;BME280;62188;35.640;139.748;2023-03-14T09:45:29;102290.06;;;14.81;32.51
64115;BME280;62188;35.640;139.748;2023-03-14T09:47:50;102302.98;;;14.64;32.43
64115;BME280;62188;35.640;139.748;2023-03-14T09:50:16;102302.06;;;14.93;32.61
64115;BME280;62188;35.640;139.748;2023-03-14T09:52:45;102307.06;;;14.53;32.61
64115;BME280;62188;35.640;139.748;2023-03-14T09:55:12;102307.05;;;14.66;32.55
64115;BME280;62188;35.640;139.748;2023-03-14T09:57:35;102310.97;;;14.65;32.50
64115;BME280;62188;35.640;139.748;2023-03-14T10:00:03;102312.36;;;14.87;32.43
64115;BME280;62188;35.640;139.748;2023-03-14T10:02:28;102317.83;;;15.13;32.30
64115;BME280;62188;35.640;139.748;2023-03-14T10:04:52;102321.21;;;15.30;31.56
64115;BME280;62188;35.640;139.748;2023-03-14T10:07:17;102325.21;;;15.05;30.25
64115;BME280;62188;35.640;139.748;2023-03-14T10:09:43;102325.87;;;15.09;29.92
64115;BME280;62188;35.640;139.748;2023-03-14T10:12:09;102330.90;;;15.14;29.67
64115;BME280;62188;35.640;139.748;2023-03-14T10:14:36;102337.70;;;15.54;29.52
64115;BME280;62188;35.640;139.748;2023-03-14T10:17:09;102340.11;;;14.96;29.00
64115;BME280;62188;35.640;139.748;2023-03-14T10:19:24;102343.06;;;15.04;29.29
64115;BME280;62188;35.640;139.748;2023-03-14T10:21:53;102350.00;;;15.25;29.42
64115;BME280;62188;35.640;139.748;2023-03-14T10:24:22;102354.59;;;15.03;29.72
64115;BME280;62188;35.640;139.748;2023-03-14T10:26:43;102361.66;;;15.16;28.98
64115;BME280;62188;35.640;139.748;2023-03-14T10:29:12;102364.04;;;15.51;28.64
64115;BME280;62188;35.640;139.748;2023-03-14T10:31:46;102368.81;;;15.53;28.86
64115;BME280;62188;35.640;139.748;2023-03-14T10:34:01;102373.84;;;15.34;28.64
64115;BME280;62188;35.640;139.748;2023-03-14T10:36:26;102376.88;;;15.35;28.39
64115;BME280;62188;35.640;139.748;2023-03-14T10:38:49;102380.69;;;15.29;27.94
64115;BME280;62188;35.640;139.748;2023-03-14T10:41:18;102383.07;;;15.22;28.41
64115;BME280;62188;35.640;139.748;2023-03-14T10:43:41;102384.17;;;15.29;28.61
64115;BME280;62188;35.640;139.748;2023-03-14T10:46:12;102383.79;;;15.55;29.35
64115;BME280;62188;35.640;139.748;2023-03-14T10:48:34;102386.14;;;15.56;28.77
64115;BME280;62188;35.640;139.748;2023-03-14T10:51:03;102390.13;;;15.68;29.15
64115;BME280;62188;35.640;139.748;2023-03-14T10:53:24;102395.99;;;15.52;29.23
64115;BME280;62188;35.640;139.748;2023-03-14T10:55:48;102401.52;;;15.61;29.94
64115;BME280;62188;35.640;139.748;2023-03-14T10:58:23;102406.33;;;15.48;29.97
64115;BME280;62188;35.640;139.748;2023-03-14T11:00:38;102407.57;;;15.57;30.24
64115;BME280;62188;35.640;139.748;2023-03-14T11:03:10;102409.83;;;15.64;31.37
64115;BME280;62188;35.640;139.748;2023-03-14T11:05:32;102415.33;;;15.59;29.48
64115;BME280;62188;35.640;139.748;2023-03-14T11:08:00;102417.08;;;15.62;29.13
64115;BME280;62188;35.640;139.748;2023-03-14T11:10:26;102422.54;;;15.65;30.16
64115;BME280;62188;35.640;139.748;2023-03-14T11:12:55;102421.81;;;15.67;30.49
64115;BME280;62188;35.640;139.748;2023-03-14T11:15:20;102422.45;;;15.66;30.26
64115;BME280;62188;35.640;139.748;2023-03-14T11:17:43;102427.73;;;15.53;29.80
64115;BME280;62188;35.640;139.748;2023-03-14T11:20:16;102433.96;;;15.50;29.12
64115;BME280;62188;35.640;139.748;2023-03-14T11:22:35;102433.83;;;15.39;28.82
64115;BME280;62188;35.640;139.748;2023-03-14T11:25:04;102435.04;;;15.33;29.77
64115;BME280;62188;35.640;139.748;2023-03-14T11:27:23;102437.12;;;15.26;30.41
64115;BME280;62188;35.640;139.748;2023-03-14T11:29:51;102438.15;;;15.55;30.88
64115;BME280;62188;35.640;139.748;2023-03-14T11:32:16;102439.81;;;15.48;30.35
64115;BME280;62188;35.640;139.748;2023-03-14T11:34:42;102441.75;;;15.53;30.35
64115;BME280;62188;35.640;139.748;2023-03-14T11:37:05;102445.73;;;15.57;30.12
64115;BME280;62188;35.640;139.748;2023-03-14T11:39:34;102443.12;;;15.69;29.92
64115;BME280;62188;35.640;139.748;2023-03-14T11:41:54;102445.09;;;15.79;29.59
64115;BME280;62188;35.640;139.748;2023-03-14T11:44:20;102449.32;;;15.90;29.38
64115;BME280;62188;35.640;139.748;2023-03-14T11:46:49;102451.46;;;15.71;29.74
64115;BME280;62188;35.640;139.748;2023-03-14T11:49:17;102450.65;;;16.03;29.31
64115;BME280;62188;35.640;139.748;2023-03-14T11:51:38;102456.19;;;15.84;29.74
64115;BME280;62188;35.640;139.748;2023-03-14T11:54:07;102461.67;;;15.91;29.20
64115;BME280;62188;35.640;139.748;2023-03-14T11:56:31;102464.86;;;15.90;29.57
64115;BME280;62188;35.640;139.748;2023-03-14T11:58:58;102466.98;;;16.09;29.82
64115;BME280;62188;35.640;139.748;2023-03-14T12:01:19;102469.44;;;15.63;30.17
64115;BME280;62188;35.640;139.748;2023-03-14T12:03:50;102473.55;;;15.81;29.62
64115;BME280;62188;35.640;139.748;2023-03-14T12:06:16;102472.49;;;15.63;30.12
64115;BME280;62188;35.640;139.748;2023-03-14T12:08:44;102472.87;;;16.08;29.98
64115;BME280;62188;35.640;139.748;2023-03-14T12:11:02;102475.96;;;15.69;30.44
64115;BME280;62188;35.640;139.748;2023-03-14T12:13:30;102480.90;;;15.54;30.25
64115;BME280;62188;35.640;139.748;2023-03-14T12:15:56;102484.68;;;15.44;30.53
64115;BME280;62188;35.640;139.748;2023-03-14T12:18:25;102485.90;;;15.62;31.19
64115;BME280;62188;35.640;139.748;2023-03-14T12:23:13;102503.61;;;15.51;29.86
64115;BME280;62188;35.640;139.748;2023-03-14T12:25:35;102504.84;;;15.19;29.91